sensor_id;sensor_type;location;lat;lon;timestamp;P1;durP1;ratioP1;P2;durP2;ratioP2
52284;SDS011;38238;53.304;6.606;2022-11-11T00:00:54;11.93;;;6.53;;
52284;SDS011;38238;53.304;6.606;2022-11-11T00:03:27;12.55;;;6.47;;
52284;SDS011;38238;53.304;6.606;2022-11-11T00:05:52;13.45;;;6.82;;
52284;SDS011;38238;53.304;6.606;2022-11-11T00:08:18;13.68;;;7.65;;
52284;SDS011;38238;53.304;6.606;2022-11-11T00:10:44;13.10;;;7.10;;
52284;SDS011;38238;53.304;6.606;2022-11-11T00:13:10;14.50;;;7.72;;
52284;SDS011;38238;53.304;6.606;2022-11-11T00:15:36;12.35;;;7.30;;
52284;SDS011;38238;53.304;6.606;2022-11-11T00:18:03;11.68;;;7.57;;
52284;SDS011;38238;53.304;6.606;2022-11-11T00:20:48;13.73;;;7.95;;
52284;SDS011;38238;53.304;6.606;2022-11-11T00:23:32;12.75;;;8.63;;
52284;SDS011;38238;53.304;6.606;2022-11-11T00:26:17;13.45;;;8.05;;
52284;SDS011;38238;53.304;6.606;2022-11-11T00:28:42;16.10;;;9.75;;
52284;SDS011;38238;53.304;6.606;2022-11-11T00:31:09;12.85;;;7.95;;
52284;SDS011;38238;53.304;6.606;2022-11-11T00:33:36;13.90;;;9.02;;
52284;SDS011;38238;53.304;6.606;2022-11-11T00:36:02;12.75;;;8.02;;
52284;SDS011;38238;53.304;6.606;2022-11-11T00:38:28;15.02;;;9.05;;
52284;SDS011;38238;53.304;6.606;2022-11-11T00:41:09;17.25;;;8.32;;
52284;SDS011;38238;53.304;6.606;2022-11-11T00:43:35;14.85;;;8.63;;
52284;SDS011;38238;53.304;6.606;2022-11-11T00:46:01;13.15;;;8.55;;
52284;SDS011;38238;53.304;6.606;2022-11-11T00:48:46;14.60;;;10.27;;
52284;SDS011;38238;53.304;6.606;2022-11-11T00:51:30;14.45;;;8.85;;
52284;SDS011;38238;53.304;6.606;2022-11-11T00:53:56;13.63;;;8.95;;
52284;SDS011;38238;53.304;6.606;2022-11-11T00:56:22;12.38;;;8.18;;
52284;SDS011;38238;53.304;6.606;2022-11-11T00:58:48;15.27;;;10.13;;
52284;SDS011;38238;53.304;6.606;2022-11-11T01:01:14;14.15;;;9.32;;
52284;SDS011;38238;53.304;6.606;2022-11-11T01:03:40;13.10;;;8.23;;
52284;SDS011;38238;53.304;6.606;2022-11-11T01:06:06;13.73;;;8.52;;
52284;SDS011;38238;53.304;6.606;2022-11-11T01:08:32;13.88;;;10.00;;
52284;SDS011;38238;53.304;6.606;2022-11-11T01:10:58;15.45;;;10.13;;
52284;SDS011;38238;53.304;6.606;2022-11-11T01:13:30;16.17;;;10.38;;
52284;SDS011;38238;53.304;6.606;2022-11-11T01:16:01;12.02;;;9.27;;
52284;SDS011;38238;53.304;6.606;2022-11-11T01:18:29;17.42;;;9.90;;
52284;SDS011;38238;53.304;6.606;2022-11-11T01:21:04;17.13;;;9.75;;
52284;SDS011;38238;53.304;6.606;2022-11-11T01:23:33;14.20;;;8.27;;
52284;SDS011;38238;53.304;6.606;2022-11-11T01:26:20;15.98;;;9.70;;
52284;SDS011;38238;53.304;6.606;2022-11-11T01:28:49;16.20;;;9.15;;
52284;SDS011;38238;53.304;6.606;2022-11-11T01:31:16;11.20;;;9.30;;
52284;SDS011;38238;53.304;6.606;2022-11-11T01:33:42;14.40;;;9.20;;
52284;SDS011;38238;53.304;6.606;2022-11-11T01:36:09;14.98;;;10.13;;
52284;SDS011;38238;53.304;6.606;2022-11-11T01:38:38;13.88;;;9.20;;
52284;SDS011;38238;53.304;6.606;2022-11-11T01:41:05;13.43;;;9.07;;
52284;SDS011;38238;53.304;6.606;2022-11-11T01:43:50;16.20;;;9.07;;
52284;SDS011;38238;53.304;6.606;2022-11-11T01:46:19;16.77;;;10.30;;
52284;SDS011;38238;53.304;6.606;2022-11-11T01:49:08;17.00;;;10.40;;
52284;SDS011;38238;53.304;6.606;2022-11-11T01:54:37;15.80;;;10.05;;
52284;SDS011;38238;53.304;6.606;2022-11-11T01:57:07;14.98;;;10.38;;
52284;SDS011;38238;53.304;6.606;2022-11-11T01:59:39;15.05;;;8.90;;
52284;SDS011;38238;53.304;6.606;2022-11-11T02:02:14;14.07;;;9.95;;
52284;SDS011;38238;53.304;6.606;2022-11-11T02:04:45;13.45;;;10.30;;
52284;SDS011;38238;53.304;6.606;2022-11-11T02:07:32;13.48;;;10.02;;
52284;SDS011;38238;53.304;6.606;2022-11-11T02:09:59;14.30;;;9.70;;
52284;SDS011;38238;53.304;6.606;2022-11-11T02:12:29;13.18;;;9.68;;
52284;SDS011;38238;53.304;6.606;2022-11-11T02:15:13;12.93;;;9.05;;
52284;SDS011;38238;53.304;6.606;2022-11-11T02:17:39;11.73;;;8.65;;
52284;SDS011;38238;53.304;6.606;2022-11-11T02:20:05;13.77;;;9.32;;
52284;SDS011;38238;53.304;6.606;2022-11-11T02:22:54;12.40;;;9.50;;
52284;SDS011;38238;53.304;6.606;2022-11-11T02:25:42;13.00;;;9.90;;
52284;SDS011;38238;53.304;6.606;2022-11-11T02:28:10;12.95;;;9.00;;
52284;SDS011;38238;53.304;6.606;2022-11-11T02:30:37;13.60;;;9.98;;
52284;SDS011;38238;53.304;6.606;2022-11-11T02:33:03;13.40;;;8.68;;
52284;SDS011;38238;53.304;6.606;2022-11-11T02:35:33;14.05;;;9.68;;
52284;SDS011;38238;53.304;6.606;2022-11-11T02:38:01;14.27;;;9.75;;
52284;SDS011;38238;53.304;6.606;2022-11-11T02:40:37;14.02;;;9.43;;
52284;SDS011;38238;53.304;6.606;2022-11-11T02:43:03;14.00;;;10.07;;
52284;SDS011;38238;53.304;6.606;2022-11-11T02:45:29;13.23;;;9.93;;
52284;SDS011;38238;53.304;6.606;2022-11-11T02:47:55;16.05;;;9.55;;
52284;SDS011;38238;53.304;6.606;2022-11-11T02:50:21;17.10;;;9.73;;
52284;SDS011;38238;53.304;6.606;2022-11-11T02:52:47;16.15;;;10.73;;
52284;SDS011;38238;53.304;6.606;2022-11-11T02:55:12;15.27;;;11.38;;
52284;SDS011;38238;53.304;6.606;2022-11-11T02:57:38;14.40;;;11.40;;
52284;SDS011;38238;53.304;6.606;2022-11-11T03:00:04;18.85;;;11.90;;
52284;SDS011;38238;53.304;6.606;2022-11-11T03:02:31;14.85;;;9.93;;
52284;SDS011;38238;53.304;6.606;2022-11-11T03:04:56;17.27;;;11.55;;
52284;SDS011;38238;53.304;6.606;2022-11-11T03:07:23;16.92;;;12.40;;
52284;SDS011;38238;53.304;6.606;2022-11-11T03:09:49;20.60;;;13.13;;
52284;SDS011;38238;53.304;6.606;2022-11-11T03:12:15;16.58;;;12.45;;
52284;SDS011;38238;53.304;6.606;2022-11-11T03:14:41;16.73;;;11.43;;
52284;SDS011;38238;53.304;6.606;2022-11-11T03:17:07;18.90;;;14.27;;
52284;SDS011;38238;53.304;6.606;2022-11-11T03:19:52;18.02;;;13.70;;
52284;SDS011;38238;53.304;6.606;2022-11-11T03:22:38;20.13;;;14.85;;
52284;SDS011;38238;53.304;6.606;2022-11-11T03:25:03;19.35;;;14.02;;
52284;SDS011;38238;53.304;6.606;2022-11-11T03:27:48;15.55;;;13.77;;
52284;SDS011;38238;53.304;6.606;2022-11-11T03:30:14;17.15;;;12.85;;
52284;SDS011;38238;53.304;6.606;2022-11-11T03:32:40;18.52;;;15.20;;
52284;SDS011;38238;53.304;6.606;2022-11-11T03:35:07;21.10;;;14.77;;
52284;SDS011;38238;53.304;6.606;2022-11-11T03:37:33;19.00;;;14.65;;
52284;SDS011;38238;53.304;6.606;2022-11-11T03:40:18;21.67;;;15.75;;
52284;SDS011;38238;53.304;6.606;2022-11-11T03:42:44;19.85;;;14.60;;
52284;SDS011;38238;53.304;6.606;2022-11-11T03:45:09;18.02;;;15.40;;
52284;SDS011;38238;53.304;6.606;2022-11-11T03:47:35;23.65;;;15.13;;
52284;SDS011;38238;53.304;6.606;2022-11-11T03:50:01;20.25;;;15.27;;
52284;SDS011;38238;53.304;6.606;2022-11-11T03:52:26;24.25;;;17.48;;
52284;SDS011;38238;53.304;6.606;2022-11-11T03:54:52;20.83;;;15.10;;
52284;SDS011;38238;53.304;6.606;2022-11-11T03:57:18;23.05;;;17.55;;
52284;SDS011;38238;53.304;6.606;2022-11-11T03:59:56;21.90;;;18.27;;
52284;SDS011;38238;53.304;6.606;2022-11-11T04:02:21;18.75;;;15.15;;
52284;SDS011;38238;53.304;6.606;2022-11-11T04:05:06;20.48;;;15.88;;
52284;SDS011;38238;53.304;6.606;2022-11-11T04:07:50;20.75;;;16.40;;
52284;SDS011;38238;53.304;6.606;2022-11-11T04:10:34;24.00;;;16.58;;
52284;SDS011;38238;53.304;6.606;2022-11-11T04:13:01;21.92;;;17.75;;
52284;SDS011;38238;53.304;6.606;2022-11-11T04:15:46;21.88;;;15.27;;
52284;SDS011;38238;53.304;6.606;2022-11-11T04:18:30;20.70;;;13.85;;
52284;SDS011;38238;53.304;6.606;2022-11-11T04:21:15;22.30;;;16.95;;
52284;SDS011;38238;53.304;6.606;2022-11-11T04:23:59;22.27;;;17.15;;
52284;SDS011;38238;53.304;6.606;2022-11-11T04:26:25;21.08;;;17.38;;
52284;SDS011;38238;53.304;6.606;2022-11-11T04:28:51;23.50;;;18.25;;
52284;SDS011;38238;53.304;6.606;2022-11-11T04:31:35;23.88;;;19.55;;
52284;SDS011;38238;53.304;6.606;2022-11-11T04:34:01;20.60;;;16.58;;
52284;SDS011;38238;53.304;6.606;2022-11-11T04:36:27;23.40;;;18.67;;
52284;SDS011;38238;53.304;6.606;2022-11-11T04:38:52;23.73;;;16.80;;
52284;SDS011;38238;53.304;6.606;2022-11-11T04:41:36;19.25;;;17.08;;
52284;SDS011;38238;53.304;6.606;2022-11-11T04:44:02;25.73;;;18.50;;
52284;SDS011;38238;53.304;6.606;2022-11-11T04:46:47;23.83;;;18.98;;
52284;SDS011;38238;53.304;6.606;2022-11-11T04:49:12;20.95;;;18.35;;
52284;SDS011;38238;53.304;6.606;2022-11-11T04:51:38;22.63;;;18.98;;
52284;SDS011;38238;53.304;6.606;2022-11-11T04:54:22;21.67;;;18.65;;
52284;SDS011;38238;53.304;6.606;2022-11-11T04:56:48;23.88;;;16.38;;
52284;SDS011;38238;53.304;6.606;2022-11-11T04:59:17;24.33;;;19.50;;
52284;SDS011;38238;53.304;6.606;2022-11-11T05:01:44;19.77;;;17.52;;
52284;SDS011;38238;53.304;6.606;2022-11-11T05:04:29;20.73;;;16.40;;
52284;SDS011;38238;53.304;6.606;2022-11-11T05:06:55;23.23;;;20.00;;
52284;SDS011;38238;53.304;6.606;2022-11-11T05:09:39;23.30;;;20.17;;
52284;SDS011;38238;53.304;6.606;2022-11-11T05:12:05;23.38;;;18.35;;
52284;SDS011;38238;53.304;6.606;2022-11-11T05:14:31;21.95;;;18.40;;
52284;SDS011;38238;53.304;6.606;2022-11-11T05:17:15;22.50;;;18.42;;
52284;SDS011;38238;53.304;6.606;2022-11-11T05:19:59;23.98;;;19.98;;
52284;SDS011;38238;53.304;6.606;2022-11-11T05:22:44;21.05;;;18.92;;
52284;SDS011;38238;53.304;6.606;2022-11-11T05:25:10;23.35;;;20.90;;
52284;SDS011;38238;53.304;6.606;2022-11-11T05:27:53;23.58;;;18.85;;
52284;SDS011;38238;53.304;6.606;2022-11-11T05:30:23;24.38;;;18.98;;
52284;SDS011;38238;53.304;6.606;2022-11-11T05:32:50;25.52;;;20.10;;
52284;SDS011;38238;53.304;6.606;2022-11-11T05:35:16;24.65;;;19.50;;
52284;SDS011;38238;53.304;6.606;2022-11-11T05:37:43;21.63;;;16.98;;
52284;SDS011;38238;53.304;6.606;2022-11-11T05:40:29;25.45;;;21.55;;
52284;SDS011;38238;53.304;6.606;2022-11-11T05:42:54;26.30;;;20.92;;
52284;SDS011;38238;53.304;6.606;2022-11-11T05:45:20;26.30;;;21.60;;
52284;SDS011;38238;53.304;6.606;2022-11-11T05:47:46;27.08;;;22.27;;
52284;SDS011;38238;53.304;6.606;2022-11-11T05:50:11;22.17;;;18.95;;
52284;SDS011;38238;53.304;6.606;2022-11-11T05:52:37;26.20;;;22.20;;
52284;SDS011;38238;53.304;6.606;2022-11-11T05:55:03;26.58;;;20.63;;
52284;SDS011;38238;53.304;6.606;2022-11-11T05:57:29;26.65;;;20.08;;
52284;SDS011;38238;53.304;6.606;2022-11-11T05:59:54;25.45;;;21.15;;
52284;SDS011;38238;53.304;6.606;2022-11-11T06:02:22;28.00;;;21.13;;
52284;SDS011;38238;53.304;6.606;2022-11-11T06:04:48;25.58;;;19.35;;
52284;SDS011;38238;53.304;6.606;2022-11-11T06:07:14;26.92;;;19.95;;
52284;SDS011;38238;53.304;6.606;2022-11-11T06:09:39;23.42;;;20.77;;
52284;SDS011;38238;53.304;6.606;2022-11-11T06:12:05;27.42;;;21.23;;
52284;SDS011;38238;53.304;6.606;2022-11-11T06:14:31;26.17;;;22.15;;
52284;SDS011;38238;53.304;6.606;2022-11-11T06:16:56;29.05;;;20.27;;
52284;SDS011;38238;53.304;6.606;2022-11-11T06:19:22;25.05;;;19.98;;
52284;SDS011;38238;53.304;6.606;2022-11-11T06:21:48;28.00;;;22.45;;
52284;SDS011;38238;53.304;6.606;2022-11-11T06:24:23;26.80;;;20.08;;
52284;SDS011;38238;53.304;6.606;2022-11-11T06:26:49;24.33;;;19.63;;
52284;SDS011;38238;53.304;6.606;2022-11-11T06:29:15;30.60;;;20.98;;
52284;SDS011;38238;53.304;6.606;2022-11-11T06:31:40;27.15;;;20.88;;
52284;SDS011;38238;53.304;6.606;2022-11-11T06:34:06;26.92;;;22.58;;
52284;SDS011;38238;53.304;6.606;2022-11-11T06:36:32;26.67;;;19.13;;
52284;SDS011;38238;53.304;6.606;2022-11-11T06:38:57;27.08;;;20.27;;
52284;SDS011;38238;53.304;6.606;2022-11-11T06:41:24;29.02;;;18.83;;
52284;SDS011;38238;53.304;6.606;2022-11-11T06:43:49;26.27;;;19.52;;
52284;SDS011;38238;53.304;6.606;2022-11-11T06:46:24;25.80;;;18.80;;
52284;SDS011;38238;53.304;6.606;2022-11-11T06:48:51;23.60;;;19.33;;
52284;SDS011;38238;53.304;6.606;2022-11-11T06:51:17;24.65;;;18.95;;
52284;SDS011;38238;53.304;6.606;2022-11-11T06:53:43;27.65;;;19.52;;
52284;SDS011;38238;53.304;6.606;2022-11-11T06:56:09;24.92;;;19.23;;
52284;SDS011;38238;53.304;6.606;2022-11-11T06:58:36;26.55;;;18.33;;
52284;SDS011;38238;53.304;6.606;2022-11-11T07:01:03;24.70;;;18.65;;
52284;SDS011;38238;53.304;6.606;2022-11-11T07:03:30;20.85;;;16.55;;
52284;SDS011;38238;53.304;6.606;2022-11-11T07:05:58;27.70;;;21.27;;
52284;SDS011;38238;53.304;6.606;2022-11-11T07:08:25;28.17;;;20.02;;
52284;SDS011;38238;53.304;6.606;2022-11-11T07:10:51;27.70;;;20.85;;
52284;SDS011;38238;53.304;6.606;2022-11-11T07:13:16;24.80;;;20.02;;
52284;SDS011;38238;53.304;6.606;2022-11-11T07:15:42;27.55;;;21.38;;
52284;SDS011;38238;53.304;6.606;2022-11-11T07:18:08;25.38;;;19.92;;
52284;SDS011;38238;53.304;6.606;2022-11-11T07:20:35;25.75;;;18.05;;
52284;SDS011;38238;53.304;6.606;2022-11-11T07:23:01;23.38;;;16.65;;
52284;SDS011;38238;53.304;6.606;2022-11-11T07:25:28;24.73;;;21.65;;
52284;SDS011;38238;53.304;6.606;2022-11-11T07:27:53;26.27;;;18.67;;
52284;SDS011;38238;53.304;6.606;2022-11-11T07:30:19;30.45;;;21.02;;
52284;SDS011;38238;53.304;6.606;2022-11-11T07:32:46;28.70;;;21.77;;
52284;SDS011;38238;53.304;6.606;2022-11-11T07:35:13;26.60;;;21.55;;
52284;SDS011;38238;53.304;6.606;2022-11-11T07:37:40;27.77;;;20.40;;
52284;SDS011;38238;53.304;6.606;2022-11-11T07:40:07;27.08;;;21.67;;
52284;SDS011;38238;53.304;6.606;2022-11-11T07:42:37;26.20;;;21.85;;
52284;SDS011;38238;53.304;6.606;2022-11-11T07:45:03;26.55;;;21.33;;
52284;SDS011;38238;53.304;6.606;2022-11-11T07:47:30;28.27;;;21.55;;
52284;SDS011;38238;53.304;6.606;2022-11-11T07:49:58;28.08;;;22.55;;
52284;SDS011;38238;53.304;6.606;2022-11-11T07:52:24;34.53;;;21.33;;
52284;SDS011;38238;53.304;6.606;2022-11-11T07:54:50;25.90;;;20.52;;
52284;SDS011;38238;53.304;6.606;2022-11-11T07:57:16;28.90;;;21.20;;
52284;SDS011;38238;53.304;6.606;2022-11-11T07:59:41;26.70;;;19.85;;
52284;SDS011;38238;53.304;6.606;2022-11-11T08:02:10;27.02;;;20.52;;
52284;SDS011;38238;53.304;6.606;2022-11-11T08:04:36;27.65;;;20.33;;
52284;SDS011;38238;53.304;6.606;2022-11-11T08:07:02;29.08;;;22.13;;
52284;SDS011;38238;53.304;6.606;2022-11-11T08:09:28;29.15;;;22.30;;
52284;SDS011;38238;53.304;6.606;2022-11-11T08:11:54;24.75;;;19.98;;
52284;SDS011;38238;53.304;6.606;2022-11-11T08:14:38;26.73;;;19.80;;
52284;SDS011;38238;53.304;6.606;2022-11-11T08:17:03;27.75;;;20.92;;
52284;SDS011;38238;53.304;6.606;2022-11-11T08:19:29;25.38;;;18.77;;
52284;SDS011;38238;53.304;6.606;2022-11-11T08:21:55;24.80;;;21.00;;
52284;SDS011;38238;53.304;6.606;2022-11-11T08:24:21;27.77;;;20.35;;
52284;SDS011;38238;53.304;6.606;2022-11-11T08:26:47;28.10;;;21.80;;
52284;SDS011;38238;53.304;6.606;2022-11-11T08:29:13;20.83;;;16.65;;
52284;SDS011;38238;53.304;6.606;2022-11-11T08:31:39;28.95;;;20.27;;
52284;SDS011;38238;53.304;6.606;2022-11-11T08:34:05;29.33;;;21.75;;
52284;SDS011;38238;53.304;6.606;2022-11-11T08:36:31;28.92;;;22.20;;
52284;SDS011;38238;53.304;6.606;2022-11-11T08:38:56;26.20;;;20.38;;
52284;SDS011;38238;53.304;6.606;2022-11-11T08:41:22;26.05;;;21.60;;
52284;SDS011;38238;53.304;6.606;2022-11-11T08:43:51;26.48;;;21.52;;
52284;SDS011;38238;53.304;6.606;2022-11-11T08:46:18;24.58;;;19.48;;
52284;SDS011;38238;53.304;6.606;2022-11-11T08:48:44;29.33;;;20.83;;
52284;SDS011;38238;53.304;6.606;2022-11-11T08:51:14;30.40;;;20.92;;
52284;SDS011;38238;53.304;6.606;2022-11-11T08:53:40;28.70;;;21.90;;
52284;SDS011;38238;53.304;6.606;2022-11-11T08:56:06;28.08;;;18.65;;
52284;SDS011;38238;53.304;6.606;2022-11-11T08:58:32;26.83;;;21.00;;
52284;SDS011;38238;53.304;6.606;2022-11-11T09:00:59;28.85;;;20.73;;
52284;SDS011;38238;53.304;6.606;2022-11-11T09:03:25;26.40;;;22.35;;
52284;SDS011;38238;53.304;6.606;2022-11-11T09:05:51;25.90;;;20.00;;
52284;SDS011;38238;53.304;6.606;2022-11-11T09:08:17;24.02;;;20.90;;
52284;SDS011;38238;53.304;6.606;2022-11-11T09:10:43;24.25;;;21.30;;
52284;SDS011;38238;53.304;6.606;2022-11-11T09:13:09;24.67;;;20.48;;
52284;SDS011;38238;53.304;6.606;2022-11-11T09:15:34;25.38;;;19.80;;
52284;SDS011;38238;53.304;6.606;2022-11-11T09:18:00;22.52;;;19.23;;
52284;SDS011;38238;53.304;6.606;2022-11-11T09:20:27;26.05;;;20.20;;
52284;SDS011;38238;53.304;6.606;2022-11-11T09:22:53;26.95;;;20.30;;
52284;SDS011;38238;53.304;6.606;2022-11-11T09:25:19;20.75;;;17.45;;
52284;SDS011;38238;53.304;6.606;2022-11-11T09:27:55;26.25;;;21.30;;
52284;SDS011;38238;53.304;6.606;2022-11-11T09:30:22;25.48;;;21.15;;
52284;SDS011;38238;53.304;6.606;2022-11-11T09:32:48;23.55;;;20.17;;
52284;SDS011;38238;53.304;6.606;2022-11-11T09:35:14;28.42;;;20.48;;
52284;SDS011;38238;53.304;6.606;2022-11-11T09:37:40;27.70;;;21.20;;
52284;SDS011;38238;53.304;6.606;2022-11-11T09:40:06;27.92;;;21.25;;
52284;SDS011;38238;53.304;6.606;2022-11-11T09:42:38;29.48;;;20.88;;
52284;SDS011;38238;53.304;6.606;2022-11-11T09:45:23;23.92;;;20.30;;
52284;SDS011;38238;53.304;6.606;2022-11-11T09:48:23;24.88;;;19.85;;
52284;SDS011;38238;53.304;6.606;2022-11-11T09:51:08;24.52;;;16.38;;
52284;SDS011;38238;53.304;6.606;2022-11-11T09:53:51;25.27;;;19.58;;
52284;SDS011;38238;53.304;6.606;2022-11-11T09:56:21;24.50;;;19.42;;
52284;SDS011;38238;53.304;6.606;2022-11-11T09:58:49;25.13;;;17.65;;
52284;SDS011;38238;53.304;6.606;2022-11-11T10:01:41;25.60;;;18.88;;
52284;SDS011;38238;53.304;6.606;2022-11-11T10:06:46;24.55;;;19.85;;
52284;SDS011;38238;53.304;6.606;2022-11-11T10:12:04;25.30;;;20.00;;
52284;SDS011;38238;53.304;6.606;2022-11-11T10:14:40;26.35;;;18.65;;
52284;SDS011;38238;53.304;6.606;2022-11-11T10:22:34;24.33;;;20.33;;
52284;SDS011;38238;53.304;6.606;2022-11-11T10:25:16;25.08;;;20.08;;
52284;SDS011;38238;53.304;6.606;2022-11-11T10:27:45;27.85;;;19.80;;
52284;SDS011;38238;53.304;6.606;2022-11-11T10:30:23;24.77;;;17.90;;
52284;SDS011;38238;53.304;6.606;2022-11-11T10:33:05;26.27;;;19.85;;
52284;SDS011;38238;53.304;6.606;2022-11-11T10:35:55;26.55;;;20.25;;
52284;SDS011;38238;53.304;6.606;2022-11-11T10:38:45;28.67;;;20.50;;
52284;SDS011;38238;53.304;6.606;2022-11-11T10:41:19;22.23;;;16.42;;
52284;SDS011;38238;53.304;6.606;2022-11-11T10:43:49;22.30;;;18.33;;
52284;SDS011;38238;53.304;6.606;2022-11-11T10:46:23;22.70;;;19.10;;
52284;SDS011;38238;53.304;6.606;2022-11-11T10:49:00;25.42;;;18.17;;
52284;SDS011;38238;53.304;6.606;2022-11-11T10:51:43;24.25;;;18.85;;
52284;SDS011;38238;53.304;6.606;2022-11-11T10:54:16;26.52;;;19.23;;
52284;SDS011;38238;53.304;6.606;2022-11-11T10:56:59;27.17;;;19.55;;
52284;SDS011;38238;53.304;6.606;2022-11-11T10:59:35;24.10;;;19.27;;
52284;SDS011;38238;53.304;6.606;2022-11-11T11:04:51;23.23;;;19.60;;
52284;SDS011;38238;53.304;6.606;2022-11-11T11:07:26;26.38;;;20.15;;
52284;SDS011;38238;53.304;6.606;2022-11-11T11:10:17;27.48;;;20.42;;
52284;SDS011;38238;53.304;6.606;2022-11-11T11:12:58;24.63;;;20.05;;
52284;SDS011;38238;53.304;6.606;2022-11-11T11:15:29;24.30;;;18.33;;
52284;SDS011;38238;53.304;6.606;2022-11-11T11:18:02;20.25;;;18.13;;
52284;SDS011;38238;53.304;6.606;2022-11-11T11:20:35;20.48;;;16.23;;
52284;SDS011;38238;53.304;6.606;2022-11-11T11:23:01;22.00;;;17.77;;
52284;SDS011;38238;53.304;6.606;2022-11-11T11:25:28;19.25;;;15.23;;
52284;SDS011;38238;53.304;6.606;2022-11-11T11:28:13;23.35;;;18.63;;
52284;SDS011;38238;53.304;6.606;2022-11-11T11:30:39;18.30;;;15.95;;
52284;SDS011;38238;53.304;6.606;2022-11-11T11:33:06;22.42;;;18.65;;
52284;SDS011;38238;53.304;6.606;2022-11-11T11:38:06;19.55;;;15.18;;
52284;SDS011;38238;53.304;6.606;2022-11-11T11:45:59;20.38;;;17.98;;
52284;SDS011;38238;53.304;6.606;2022-11-11T11:48:34;20.38;;;16.85;;
52284;SDS011;38238;53.304;6.606;2022-11-11T11:51:23;23.77;;;17.27;;
52284;SDS011;38238;53.304;6.606;2022-11-11T11:57:01;19.50;;;16.38;;
52284;SDS011;38238;53.304;6.606;2022-11-11T12:08:15;17.60;;;14.90;;
52284;SDS011;38238;53.304;6.606;2022-11-11T12:10:45;17.85;;;14.60;;
52284;SDS011;38238;53.304;6.606;2022-11-11T12:18:54;16.17;;;11.55;;
52284;SDS011;38238;53.304;6.606;2022-11-11T12:27:32;18.10;;;14.55;;
52284;SDS011;38238;53.304;6.606;2022-11-11T12:30:10;17.13;;;14.95;;
52284;SDS011;38238;53.304;6.606;2022-11-11T12:32:56;16.25;;;14.18;;
52284;SDS011;38238;53.304;6.606;2022-11-11T12:35:56;17.50;;;15.38;;
52284;SDS011;38238;53.304;6.606;2022-11-11T12:43:55;16.83;;;14.10;;
52284;SDS011;38238;53.304;6.606;2022-11-11T12:54:51;17.52;;;14.20;;
52284;SDS011;38238;53.304;6.606;2022-11-11T12:57:37;17.63;;;15.52;;
52284;SDS011;38238;53.304;6.606;2022-11-11T13:00:24;17.88;;;15.15;;
52284;SDS011;38238;53.304;6.606;2022-11-11T13:05:21;16.58;;;13.13;;
52284;SDS011;38238;53.304;6.606;2022-11-11T13:16:38;20.05;;;13.77;;
52284;SDS011;38238;53.304;6.606;2022-11-11T13:24:16;17.60;;;13.75;;
52284;SDS011;38238;53.304;6.606;2022-11-11T13:29:39;17.63;;;14.43;;
52284;SDS011;38238;53.304;6.606;2022-11-11T13:32:40;19.55;;;15.80;;
52284;SDS011;38238;53.304;6.606;2022-11-11T13:35:31;20.80;;;15.57;;
52284;SDS011;38238;53.304;6.606;2022-11-11T13:37:58;19.90;;;16.08;;
52284;SDS011;38238;53.304;6.606;2022-11-11T13:40:27;20.67;;;17.75;;
52284;SDS011;38238;53.304;6.606;2022-11-11T13:43:20;22.58;;;16.90;;
52284;SDS011;38238;53.304;6.606;2022-11-11T13:45:53;23.60;;;18.05;;
52284;SDS011;38238;53.304;6.606;2022-11-11T13:48:23;23.98;;;19.45;;
52284;SDS011;38238;53.304;6.606;2022-11-11T13:50:50;20.30;;;16.50;;
52284;SDS011;38238;53.304;6.606;2022-11-11T13:56:13;23.38;;;18.35;;
52284;SDS011;38238;53.304;6.606;2022-11-11T13:59:56;22.65;;;18.80;;
52284;SDS011;38238;53.304;6.606;2022-11-11T14:10:55;20.15;;;18.02;;
52284;SDS011;38238;53.304;6.606;2022-11-11T14:13:34;21.58;;;18.25;;
52284;SDS011;38238;53.304;6.606;2022-11-11T14:15:49;19.92;;;17.67;;
52284;SDS011;38238;53.304;6.606;2022-11-11T14:20:46;20.83;;;17.27;;
52284;SDS011;38238;53.304;6.606;2022-11-11T14:23:28;25.35;;;18.63;;
52284;SDS011;38238;53.304;6.606;2022-11-11T14:28:31;21.73;;;17.00;;
52284;SDS011;38238;53.304;6.606;2022-11-11T14:41:54;19.65;;;16.92;;
52284;SDS011;38238;53.304;6.606;2022-11-11T14:57:20;21.83;;;16.45;;
52284;SDS011;38238;53.304;6.606;2022-11-11T14:59:54;24.70;;;20.45;;
52284;SDS011;38238;53.304;6.606;2022-11-11T15:02:22;26.02;;;20.27;;
52284;SDS011;38238;53.304;6.606;2022-11-11T15:04:51;22.55;;;18.27;;
52284;SDS011;38238;53.304;6.606;2022-11-11T15:07:21;23.27;;;18.58;;
52284;SDS011;38238;53.304;6.606;2022-11-11T15:15:27;22.20;;;17.20;;
52284;SDS011;38238;53.304;6.606;2022-11-11T15:23:46;20.40;;;18.00;;
52284;SDS011;38238;53.304;6.606;2022-11-11T15:26:28;21.70;;;17.52;;
52284;SDS011;38238;53.304;6.606;2022-11-11T15:29:17;23.23;;;18.27;;
52284;SDS011;38238;53.304;6.606;2022-11-11T15:31:56;20.63;;;18.15;;
52284;SDS011;38238;53.304;6.606;2022-11-11T15:34:40;20.88;;;17.27;;
52284;SDS011;38238;53.304;6.606;2022-11-11T15:37:17;23.35;;;18.80;;
52284;SDS011;38238;53.304;6.606;2022-11-11T15:42:21;24.17;;;18.50;;
52284;SDS011;38238;53.304;6.606;2022-11-11T15:44:58;24.48;;;19.85;;
52284;SDS011;38238;53.304;6.606;2022-11-11T15:47:26;20.33;;;18.13;;
52284;SDS011;38238;53.304;6.606;2022-11-11T15:49:53;22.92;;;17.60;;
52284;SDS011;38238;53.304;6.606;2022-11-11T15:54:56;23.70;;;18.95;;
52284;SDS011;38238;53.304;6.606;2022-11-11T15:59:56;20.58;;;17.63;;
52284;SDS011;38238;53.304;6.606;2022-11-11T16:02:24;22.55;;;18.60;;
52284;SDS011;38238;53.304;6.606;2022-11-11T16:04:56;21.17;;;17.63;;
52284;SDS011;38238;53.304;6.606;2022-11-11T16:07:26;23.92;;;20.85;;
52284;SDS011;38238;53.304;6.606;2022-11-11T16:10:16;23.75;;;17.95;;
52284;SDS011;38238;53.304;6.606;2022-11-11T16:12:56;23.73;;;17.50;;
52284;SDS011;38238;53.304;6.606;2022-11-11T16:15:44;24.88;;;20.30;;
52284;SDS011;38238;53.304;6.606;2022-11-11T16:18:19;22.95;;;20.55;;
52284;SDS011;38238;53.304;6.606;2022-11-11T16:20:52;23.50;;;19.75;;
52284;SDS011;38238;53.304;6.606;2022-11-11T16:23:26;24.30;;;21.63;;
52284;SDS011;38238;53.304;6.606;2022-11-11T16:25:52;24.17;;;20.17;;
52284;SDS011;38238;53.304;6.606;2022-11-11T16:28:19;23.08;;;20.67;;
52284;SDS011;38238;53.304;6.606;2022-11-11T16:30:45;23.00;;;20.52;;
52284;SDS011;38238;53.304;6.606;2022-11-11T16:33:17;23.17;;;19.80;;
52284;SDS011;38238;53.304;6.606;2022-11-11T16:35:43;24.48;;;20.33;;
52284;SDS011;38238;53.304;6.606;2022-11-11T16:38:09;23.58;;;18.58;;
52284;SDS011;38238;53.304;6.606;2022-11-11T16:40:36;24.58;;;20.40;;
52284;SDS011;38238;53.304;6.606;2022-11-11T16:43:19;26.38;;;21.35;;
52284;SDS011;38238;53.304;6.606;2022-11-11T16:46:07;25.13;;;21.13;;
52284;SDS011;38238;53.304;6.606;2022-11-11T16:48:43;26.52;;;22.13;;
52284;SDS011;38238;53.304;6.606;2022-11-11T16:51:20;25.17;;;21.38;;
52284;SDS011;38238;53.304;6.606;2022-11-11T16:53:54;26.85;;;19.35;;
52284;SDS011;38238;53.304;6.606;2022-11-11T16:56:32;27.33;;;21.50;;
52284;SDS011;38238;53.304;6.606;2022-11-11T16:59:02;24.65;;;20.67;;
52284;SDS011;38238;53.304;6.606;2022-11-11T17:01:42;24.77;;;19.60;;
52284;SDS011;38238;53.304;6.606;2022-11-11T17:04:09;24.73;;;20.13;;
52284;SDS011;38238;53.304;6.606;2022-11-11T17:06:57;26.73;;;21.48;;
52284;SDS011;38238;53.304;6.606;2022-11-11T17:11:58;26.73;;;21.38;;